createdAt,value
2019-04-04T00:01:38.893Z,8.93
2019-04-04T00:04:07.722Z,9.27
2019-04-04T00:06:36.569Z,9.83
2019-04-04T00:09:09.242Z,8.67
2019-04-04T00:11:38.174Z,8.47
2019-04-04T00:14:07.329Z,8.73
2019-04-04T00:16:36.246Z,9.17
2019-04-04T00:19:05.129Z,9.60
2019-04-04T00:21:34.613Z,9.27
2019-04-04T00:24:03.644Z,8.43
2019-04-04T00:26:32.571Z,10.00
2019-04-04T00:29:01.637Z,9.63
2019-04-04T00:31:30.727Z,10.60
2019-04-04T00:33:59.725Z,9.90
2019-04-04T00:36:28.621Z,9.80
2019-04-04T00:38:57.509Z,9.00
2019-04-04T00:41:26.346Z,10.47
2019-04-04T00:43:55.298Z,10.20
2019-04-04T00:46:24.105Z,10.37
2019-04-04T00:48:53.057Z,9.00
2019-04-04T00:51:22.062Z,9.20
2019-04-04T00:53:51.107Z,10.50
2019-04-04T00:56:19.926Z,10.50
2019-04-04T00:58:51.648Z,11.10
2019-04-04T01:01:19.406Z,10.20
2019-04-04T01:03:48.223Z,11.13
2019-04-04T01:06:17.438Z,11.10
2019-04-04T01:08:46.337Z,11.37
2019-04-04T01:11:15.305Z,10.40
2019-04-04T01:13:44.146Z,11.60
2019-04-04T01:16:12.978Z,11.03
2019-04-04T01:18:41.889Z,11.10
2019-04-04T01:21:10.899Z,11.30
2019-04-04T01:23:39.881Z,10.53
2019-04-04T01:26:08.869Z,12.40
2019-04-04T01:28:39.097Z,11.23
2019-04-04T01:31:08.560Z,11.80
2019-04-04T01:33:38.267Z,11.90
2019-04-04T01:36:07.251Z,11.10
2019-04-04T01:38:36.188Z,11.40
2019-04-04T01:41:05.213Z,11.00
2019-04-04T01:43:34.281Z,12.20
2019-04-04T01:46:03.225Z,11.30
2019-04-04T01:48:32.125Z,10.77
2019-04-04T01:51:01.381Z,11.30
2019-04-04T01:53:30.807Z,11.03
2019-04-04T01:55:59.985Z,11.37
2019-04-04T01:58:29.022Z,11.00
2019-04-04T02:00:58.178Z,11.33
2019-04-04T02:03:27.135Z,11.13
2019-04-04T02:05:58.046Z,10.47
2019-04-04T02:08:26.773Z,11.33
2019-04-04T02:10:55.790Z,10.30
2019-04-04T02:13:24.790Z,10.60
2019-04-04T02:15:53.623Z,11.00
2019-04-04T02:18:23.594Z,11.07
2019-04-04T02:20:52.891Z,10.30
2019-04-04T02:23:21.839Z,11.00
2019-04-04T02:25:50.791Z,9.90
2019-04-04T02:28:19.633Z,9.83
2019-04-04T02:30:49.283Z,10.20
2019-04-04T02:33:18.302Z,8.97
2019-04-04T02:35:47.228Z,9.07
2019-04-04T02:38:16.068Z,9.23
2019-04-04T02:40:44.954Z,9.37
2019-04-04T02:43:13.890Z,8.50
2019-04-04T02:45:42.816Z,10.03
2019-04-04T02:48:11.914Z,9.07
2019-04-04T02:50:40.949Z,8.43
2019-04-04T02:53:09.876Z,8.50
2019-04-04T02:55:38.699Z,7.93
2019-04-04T02:58:07.608Z,8.73
2019-04-04T03:00:36.520Z,8.93
2019-04-04T03:03:08.553Z,8.30
2019-04-04T03:05:36.380Z,8.00
2019-04-04T03:08:05.407Z,8.33
2019-04-04T03:10:35.026Z,7.97
2019-04-04T03:13:04.036Z,7.83
2019-04-04T03:15:32.984Z,8.70
2019-04-04T03:18:05.209Z,7.63
2019-04-04T03:20:32.655Z,8.27
2019-04-04T03:23:01.654Z,7.13
2019-04-04T03:25:30.579Z,8.10
2019-04-04T03:27:59.692Z,7.63
2019-04-04T03:30:28.672Z,8.27
2019-04-04T03:32:57.722Z,7.60
2019-04-04T03:35:28.631Z,7.73
2019-04-04T03:37:57.428Z,8.80
2019-04-04T03:40:26.401Z,8.13
2019-04-04T03:42:55.351Z,8.07
2019-04-04T03:45:27.283Z,7.90
2019-04-04T03:47:54.761Z,8.13
2019-04-04T03:50:23.719Z,7.57
2019-04-04T03:52:52.737Z,8.00
2019-04-04T03:55:21.651Z,7.37
2019-04-04T03:57:54.078Z,8.03
2019-04-04T04:00:27.556Z,8.90
2019-04-04T04:02:56.485Z,7.87
2019-04-04T04:05:26.442Z,8.17
2019-04-04T04:07:55.425Z,7.47
2019-04-04T04:10:24.331Z,8.23
2019-04-04T04:12:53.303Z,7.80
2019-04-04T04:15:22.305Z,7.10
2019-04-04T04:17:51.149Z,7.50
2019-04-04T04:20:20.246Z,8.30
2019-04-04T04:22:50.945Z,8.30
2019-04-04T04:25:20.159Z,6.90
2019-04-04T04:27:49.859Z,8.10
2019-04-04T04:30:18.983Z,7.73
2019-04-04T04:32:47.881Z,8.70
2019-04-04T04:35:16.942Z,8.10
2019-04-04T04:37:45.893Z,7.40
2019-04-04T04:40:15.478Z,7.47
2019-04-04T04:42:44.809Z,7.70
2019-04-04T04:45:13.861Z,7.13
2019-04-04T04:47:42.966Z,6.60
2019-04-04T04:50:12.014Z,7.30
2019-04-04T04:52:40.958Z,7.83
2019-04-04T04:55:12.036Z,7.13
2019-04-04T04:57:40.600Z,7.03
2019-04-04T05:00:09.761Z,7.37
2019-04-04T05:02:38.557Z,6.90
2019-04-04T05:05:08.153Z,7.20
2019-04-04T05:07:38.618Z,7.53
2019-04-04T05:10:08.038Z,6.40
2019-04-04T05:12:36.949Z,7.23
2019-04-04T05:15:06.565Z,8.07
2019-04-04T05:17:35.518Z,6.73
2019-04-04T05:20:06.318Z,6.93
2019-04-04T05:22:35.240Z,7.10
2019-04-04T05:25:08.524Z,7.20
2019-04-04T05:27:37.154Z,6.90
2019-04-04T05:30:08.344Z,7.93
2019-04-04T05:32:37.634Z,7.53
2019-04-04T05:35:06.672Z,8.27
2019-04-04T05:37:38.004Z,7.67
2019-04-04T05:40:07.250Z,7.17
2019-04-04T05:42:36.170Z,7.87
2019-04-04T05:45:05.602Z,7.00
2019-04-04T05:47:34.531Z,8.03
2019-04-04T05:50:03.676Z,7.30
2019-04-04T05:52:33.161Z,7.83
2019-04-04T05:55:02.420Z,7.80
2019-04-04T05:57:31.316Z,7.60
2019-04-04T06:00:00.218Z,7.10
2019-04-04T06:02:29.209Z,7.63
2019-04-04T06:04:58.034Z,8.07
2019-04-04T06:07:26.940Z,6.97
2019-04-04T06:09:55.807Z,8.27
2019-04-04T06:12:25.128Z,8.30
2019-04-04T06:14:54.961Z,8.27
2019-04-04T06:17:26.858Z,8.23
2019-04-04T06:19:54.449Z,7.80
2019-04-04T06:22:23.311Z,7.83
2019-04-04T06:24:52.399Z,7.93
2019-04-04T06:27:21.489Z,9.20
2019-04-04T06:29:50.357Z,6.80
2019-04-04T06:32:19.321Z,8.17
2019-04-04T06:34:48.213Z,9.27
2019-04-04T06:37:18.097Z,6.87
2019-04-04T06:39:47.997Z,8.10
2019-04-04T06:42:16.816Z,7.83
2019-04-04T06:44:45.727Z,7.87
2019-04-04T06:47:16.488Z,8.43
2019-04-04T06:49:45.899Z,8.57
2019-04-04T06:52:16.235Z,8.53
2019-04-04T06:54:46.059Z,8.03
2019-04-04T06:57:15.179Z,7.53
2019-04-04T06:59:44.103Z,8.70
2019-04-04T07:02:13.182Z,7.30
2019-04-04T07:04:42.041Z,8.57
2019-04-04T07:07:12.781Z,8.90
2019-04-04T07:09:41.669Z,8.27
2019-04-04T07:12:20.781Z,8.13
2019-04-04T07:14:46.000Z,8.90
2019-04-04T07:17:11.885Z,6.77
2019-04-04T07:19:40.787Z,7.30
2019-04-04T07:22:09.735Z,8.20
2019-04-04T07:24:38.578Z,7.63
2019-04-04T07:27:07.407Z,7.13
2019-04-04T07:29:36.250Z,7.93
2019-04-04T07:32:05.146Z,7.90
2019-04-04T07:34:34.123Z,8.57
2019-04-04T07:37:03.059Z,7.63
2019-04-04T07:39:32.733Z,8.03
2019-04-04T07:42:01.978Z,7.70
2019-04-04T07:44:30.790Z,7.57
2019-04-04T07:46:59.718Z,7.30
2019-04-04T07:49:28.612Z,6.93
2019-04-04T07:51:57.694Z,7.00
2019-04-04T07:54:26.656Z,7.80
2019-04-04T07:56:55.567Z,7.50
2019-04-04T07:59:24.414Z,8.57
2019-04-04T08:01:53.302Z,8.70
2019-04-04T08:04:22.249Z,8.67
2019-04-04T08:06:51.147Z,8.20
2019-04-04T08:09:19.965Z,8.27
2019-04-04T08:11:48.882Z,9.17
2019-04-04T08:14:17.762Z,8.10
2019-04-04T08:16:46.683Z,8.23
2019-04-04T08:19:15.583Z,9.23
2019-04-04T08:21:45.010Z,9.47
2019-04-04T08:24:13.910Z,9.03
2019-04-04T08:26:42.874Z,10.03
2019-04-04T08:29:11.974Z,9.03
2019-04-04T08:31:40.806Z,8.33
2019-04-04T08:34:09.718Z,9.33
2019-04-04T08:36:38.604Z,8.10
2019-04-04T08:39:11.561Z,7.67
2019-04-04T08:41:40.545Z,8.60
2019-04-04T08:44:09.661Z,9.57
2019-04-04T08:46:38.635Z,8.40
2019-04-04T08:49:07.628Z,10.20
2019-04-04T08:51:36.450Z,8.90
2019-04-04T08:54:05.691Z,10.27
2019-04-04T08:56:34.612Z,10.47
2019-04-04T08:59:03.505Z,8.70
2019-04-04T09:01:32.341Z,10.23
2019-04-04T09:04:01.285Z,9.60
2019-04-04T09:06:30.102Z,10.57
2019-04-04T09:08:59.061Z,10.27
2019-04-04T09:11:28.042Z,8.90
2019-04-04T09:13:56.878Z,9.90
2019-04-04T09:16:25.797Z,9.37
2019-04-04T09:18:54.736Z,9.63
2019-04-04T09:21:23.627Z,9.83
2019-04-04T09:23:52.542Z,9.90
2019-04-04T09:26:21.462Z,9.73
2019-04-04T09:28:50.296Z,12.60
2019-04-04T09:31:19.207Z,10.50
2019-04-04T09:33:48.078Z,9.07
2019-04-04T09:36:16.925Z,8.80
2019-04-04T09:38:45.880Z,9.40
2019-04-04T09:41:14.813Z,10.80
2019-04-04T09:43:43.750Z,10.50
2019-04-04T09:46:12.601Z,9.63
2019-04-04T09:48:41.633Z,11.13
2019-04-04T09:51:10.583Z,10.77
2019-04-04T09:53:52.312Z,10.80
2019-04-04T09:56:10.190Z,13.17
2019-04-04T09:58:39.081Z,14.23
2019-04-04T10:01:08.114Z,13.30
2019-04-04T10:03:37.081Z,17.97
2019-04-04T10:06:06.000Z,15.90
2019-04-04T10:08:34.926Z,16.33
2019-04-04T10:11:03.950Z,17.10
2019-04-04T10:13:32.807Z,16.90
2019-04-04T10:16:01.703Z,19.00
2019-04-04T10:18:30.738Z,17.23
2019-04-04T10:21:11.169Z,16.03
2019-04-04T10:23:30.208Z,17.77
2019-04-04T10:25:59.082Z,16.40
2019-04-04T10:28:28.023Z,15.53
2019-04-04T10:30:56.926Z,14.63
2019-04-04T10:33:25.730Z,15.10
2019-04-04T10:35:54.742Z,15.47
2019-04-04T10:38:23.806Z,13.53
2019-04-04T10:40:52.734Z,14.80
2019-04-04T10:43:21.551Z,14.63
2019-04-04T10:45:50.443Z,13.30
2019-04-04T10:48:19.346Z,11.87
2019-04-04T10:50:48.379Z,11.00
2019-04-04T10:53:17.232Z,11.27
2019-04-04T10:55:46.366Z,11.57
2019-04-04T10:58:15.375Z,11.73
2019-04-04T11:00:44.348Z,10.30
2019-04-04T11:03:13.310Z,10.70
2019-04-04T11:05:42.220Z,10.07
2019-04-04T11:08:11.136Z,9.70
2019-04-04T11:10:39.961Z,9.80
2019-04-04T11:13:08.921Z,9.70
2019-04-04T11:15:37.940Z,10.03
2019-04-04T11:18:06.826Z,9.83
2019-04-04T11:20:35.658Z,8.80
2019-04-04T11:23:04.709Z,9.93
2019-04-04T11:25:33.630Z,9.27
2019-04-04T11:28:02.608Z,8.70
2019-04-04T11:30:31.510Z,10.40
2019-04-04T11:33:00.341Z,8.27
2019-04-04T11:35:29.326Z,9.27
2019-04-04T11:37:58.130Z,8.67
2019-04-04T11:40:27.018Z,9.03
2019-04-04T11:42:56.509Z,8.07
2019-04-04T11:45:25.467Z,8.00
2019-04-04T11:47:54.407Z,8.60
2019-04-04T11:50:23.227Z,7.80
2019-04-04T11:52:52.113Z,7.93
2019-04-04T11:55:21.073Z,8.17
2019-04-04T11:57:49.997Z,7.67
2019-04-04T12:00:25.209Z,8.37
2019-04-04T12:02:54.201Z,7.53
2019-04-04T12:05:23.242Z,7.90
2019-04-04T12:07:52.186Z,7.67
2019-04-04T12:10:21.117Z,6.83
2019-04-04T12:12:50.010Z,7.50
2019-04-04T12:15:18.998Z,7.33
2019-04-04T12:17:47.899Z,6.10
2019-04-04T12:20:16.813Z,6.20
2019-04-04T12:22:45.693Z,6.70
2019-04-04T12:25:14.618Z,6.00
2019-04-04T12:27:43.544Z,6.70
2019-04-04T12:30:12.522Z,6.47
2019-04-04T12:32:41.396Z,7.60
2019-04-04T12:35:10.600Z,6.20
2019-04-04T12:37:39.625Z,7.00
2019-04-04T12:40:19.701Z,6.10
2019-04-04T12:42:39.917Z,6.63
2019-04-04T12:45:09.190Z,6.20
2019-04-04T12:47:38.121Z,6.70
2019-04-04T12:50:07.614Z,6.60
2019-04-04T12:52:37.017Z,6.60
2019-04-04T12:55:06.542Z,6.20
2019-04-04T12:57:35.521Z,6.87
2019-04-04T13:00:06.333Z,6.90
2019-04-04T13:02:35.167Z,6.27
2019-04-04T13:05:04.446Z,6.50
2019-04-04T13:07:33.274Z,5.70
2019-04-04T13:10:11.455Z,6.50
2019-04-04T13:12:33.710Z,5.97
2019-04-04T13:15:02.699Z,5.90
2019-04-04T13:17:31.606Z,7.27
2019-04-04T13:20:00.438Z,6.80
2019-04-04T13:22:29.270Z,5.27
2019-04-04T13:24:58.153Z,5.20
2019-04-04T13:27:27.081Z,6.00
2019-04-04T13:29:56.046Z,5.73
2019-04-04T13:32:25.102Z,6.23
2019-04-04T13:34:59.471Z,5.70
2019-04-04T13:37:24.455Z,6.00
2019-04-04T13:39:53.366Z,5.87
2019-04-04T13:42:22.321Z,5.60
2019-04-04T13:44:52.882Z,5.27
2019-04-04T13:47:22.020Z,5.60
2019-04-04T13:49:50.849Z,5.30
2019-04-04T13:52:19.753Z,6.10
2019-04-04T13:54:48.913Z,5.50
2019-04-04T13:57:17.987Z,5.87
2019-04-04T13:59:46.887Z,5.20
2019-04-04T14:02:15.903Z,6.33
2019-04-04T14:04:44.802Z,5.13
2019-04-04T14:07:13.762Z,5.60
2019-04-04T14:09:45.152Z,5.37
2019-04-04T14:12:14.320Z,5.97
2019-04-04T14:14:43.729Z,4.80
2019-04-04T14:17:12.813Z,5.20
2019-04-04T14:19:41.853Z,5.93
2019-04-04T14:22:10.978Z,5.80
2019-04-04T14:24:40.071Z,4.27
2019-04-04T14:27:08.966Z,4.90
2019-04-04T14:29:37.971Z,5.77
2019-04-04T14:32:06.874Z,6.00
2019-04-04T14:34:35.719Z,5.67
2019-04-04T14:37:04.713Z,6.33
2019-04-04T14:39:33.609Z,7.27
2019-04-04T14:42:03.529Z,5.57
2019-04-04T14:44:32.547Z,5.60
2019-04-04T14:47:01.406Z,5.00
2019-04-04T14:49:30.228Z,5.83
2019-04-04T14:51:59.203Z,6.10
2019-04-04T14:54:29.290Z,5.70
2019-04-04T14:56:59.179Z,5.30
2019-04-04T14:59:28.118Z,5.50
2019-04-04T15:01:57.207Z,6.00
2019-04-04T15:04:26.054Z,5.47
2019-04-04T15:06:54.884Z,6.10
2019-04-04T15:09:23.905Z,5.57
2019-04-04T15:11:52.774Z,5.10
2019-04-04T15:14:21.766Z,5.27
2019-04-04T15:16:50.766Z,5.03
2019-04-04T15:19:19.636Z,5.00
2019-04-04T15:21:48.654Z,6.70
2019-04-04T15:24:17.580Z,5.40
2019-04-04T15:26:46.694Z,5.07
2019-04-04T15:29:15.614Z,5.23
2019-04-04T15:31:44.530Z,6.17
2019-04-04T15:34:13.524Z,5.40
2019-04-04T15:37:01.704Z,5.33
2019-04-04T15:39:30.674Z,5.77
2019-04-04T15:41:59.738Z,6.00
2019-04-04T15:44:28.738Z,5.80
2019-04-04T15:46:57.673Z,5.43
2019-04-04T15:49:26.660Z,5.63
2019-04-04T15:51:55.657Z,5.40
2019-04-04T15:54:24.626Z,5.63
2019-04-04T15:56:53.837Z,5.50
2019-04-04T15:59:22.907Z,5.13
2019-04-04T16:01:51.739Z,4.70
2019-04-04T16:04:20.642Z,5.40
2019-04-04T16:06:49.630Z,5.27
2019-04-04T16:09:18.478Z,4.70
2019-04-04T16:11:49.741Z,5.00
2019-04-04T16:14:18.166Z,4.93
2019-04-04T16:16:46.977Z,5.50
2019-04-04T16:19:16.069Z,5.23
2019-04-04T16:21:44.980Z,6.00
2019-04-04T16:24:13.907Z,16.60
2019-04-04T16:26:42.878Z,57.13
2019-04-04T16:29:11.737Z,87.87
2019-04-04T16:31:40.665Z,45.47
2019-04-04T16:34:09.605Z,65.00
2019-04-04T16:36:38.510Z,60.33
2019-04-04T16:39:08.591Z,89.90
2019-04-04T16:41:37.733Z,111.43
2019-04-04T16:44:06.731Z,88.83
2019-04-04T16:46:35.690Z,114.30
2019-04-04T16:49:04.699Z,106.90
2019-04-04T16:51:33.578Z,94.80
2019-04-04T16:54:02.615Z,57.97
2019-04-04T16:56:31.421Z,60.30
2019-04-04T16:59:00.262Z,62.70
2019-04-04T17:01:29.525Z,50.53
2019-04-04T17:04:01.817Z,38.07
2019-04-04T17:06:29.025Z,44.07
2019-04-04T17:08:57.880Z,31.13
2019-04-04T17:11:26.872Z,31.93
2019-04-04T17:13:55.714Z,25.20
2019-04-04T17:16:24.642Z,25.80
2019-04-04T17:18:53.515Z,20.40
2019-04-04T17:21:22.893Z,17.20
2019-04-04T17:23:51.811Z,17.20
2019-04-04T17:26:20.806Z,13.47
2019-04-04T17:28:50.123Z,13.00
2019-04-04T17:31:19.273Z,11.20
2019-04-04T17:33:48.209Z,11.87
2019-04-04T17:36:19.852Z,10.00
2019-04-04T17:38:47.714Z,10.50
2019-04-04T17:41:16.649Z,10.50
2019-04-04T17:43:47.384Z,8.20
2019-04-04T17:46:17.066Z,8.77
2019-04-04T17:48:46.349Z,8.60
2019-04-04T17:51:15.637Z,8.27
2019-04-04T17:53:44.672Z,8.50
2019-04-04T17:56:14.574Z,8.20
2019-04-04T17:58:43.442Z,7.73
2019-04-04T18:01:16.836Z,8.27
2019-04-04T18:03:45.838Z,8.10
2019-04-04T18:06:15.065Z,6.90
2019-04-04T18:08:44.020Z,6.77
2019-04-04T18:11:12.934Z,7.27
2019-04-04T18:13:41.768Z,8.53
2019-04-04T18:16:10.682Z,6.73
2019-04-04T18:18:39.582Z,8.10
2019-04-04T18:21:08.758Z,8.27
2019-04-04T18:23:37.694Z,7.63
2019-04-04T18:26:06.796Z,8.00
2019-04-04T18:28:35.723Z,9.10
2019-04-04T18:31:04.742Z,8.80
2019-04-04T18:33:33.571Z,7.90
2019-04-04T18:36:02.528Z,7.93
2019-04-04T18:38:31.515Z,7.83
2019-04-04T18:41:00.463Z,8.50
2019-04-04T18:43:29.526Z,8.83
2019-04-04T18:45:58.849Z,9.07
2019-04-04T18:48:27.759Z,9.90
2019-04-04T18:50:56.756Z,9.37
2019-04-04T18:53:25.702Z,10.83
2019-04-04T18:55:54.747Z,9.73
2019-04-04T18:58:23.803Z,9.90
2019-04-04T19:00:52.836Z,11.27
2019-04-04T19:03:21.869Z,11.90
2019-04-04T19:05:50.826Z,10.97
2019-04-04T19:08:19.814Z,12.37
2019-04-04T19:10:48.915Z,15.43
2019-04-04T19:13:18.041Z,14.97
2019-04-04T19:15:47.090Z,14.70
2019-04-04T19:18:16.101Z,16.00
2019-04-04T19:20:45.329Z,17.33
2019-04-04T19:23:14.299Z,18.00
2019-04-04T19:25:43.394Z,19.33
2019-04-04T19:28:12.427Z,18.30
2019-04-04T19:30:41.342Z,19.47
2019-04-04T19:33:10.293Z,20.47
2019-04-04T19:35:39.217Z,21.20
2019-04-04T19:38:08.142Z,23.63
2019-04-04T19:40:37.513Z,20.03
2019-04-04T19:43:17.416Z,19.83
2019-04-04T19:45:37.039Z,20.17
2019-04-04T19:48:06.013Z,21.20
2019-04-04T19:50:34.925Z,21.40
2019-04-04T19:53:03.894Z,20.30
2019-04-04T19:55:32.737Z,23.03
2019-04-04T19:58:01.674Z,21.27
2019-04-04T20:00:32.081Z,21.30
2019-04-04T20:03:01.344Z,20.80
2019-04-04T20:05:30.322Z,21.20
2019-04-04T20:07:59.280Z,21.87
2019-04-04T20:10:28.257Z,21.67
2019-04-04T20:12:57.097Z,22.07
2019-04-04T20:15:26.001Z,21.20
2019-04-04T20:17:54.853Z,22.17
2019-04-04T20:20:23.718Z,22.10
2019-04-04T20:22:52.656Z,22.10
2019-04-04T20:25:21.505Z,22.07
2019-04-04T20:27:54.875Z,22.00
2019-04-04T20:30:32.697Z,24.00
2019-04-04T20:33:01.609Z,21.17
2019-04-04T20:35:30.574Z,25.13
2019-04-04T20:37:59.410Z,20.70
2019-04-04T20:40:28.354Z,23.77
2019-04-04T20:42:57.257Z,23.07
2019-04-04T20:45:26.255Z,22.27
2019-04-04T20:47:55.078Z,22.70
2019-04-04T20:50:23.893Z,24.10
2019-04-04T20:52:52.750Z,21.70
2019-04-04T20:55:21.626Z,21.27
2019-04-04T20:57:50.561Z,22.30
2019-04-04T21:00:19.851Z,21.90
2019-04-04T21:02:48.783Z,20.43
2019-04-04T21:05:17.894Z,22.10
2019-04-04T21:07:46.850Z,21.00
2019-04-04T21:10:16.053Z,22.03
2019-04-04T21:12:44.985Z,21.40
2019-04-04T21:15:14.416Z,21.80
2019-04-04T21:17:43.236Z,20.60
2019-04-04T21:20:12.144Z,20.60
2019-04-04T21:22:41.102Z,21.33
2019-04-04T21:25:11.009Z,20.33
2019-04-04T21:27:39.907Z,20.13
2019-04-04T21:30:09.371Z,21.10
2019-04-04T21:32:38.202Z,21.60
2019-04-04T21:35:07.154Z,21.90
2019-04-04T21:37:36.029Z,21.57
2019-04-04T21:40:05.339Z,24.73
2019-04-04T21:42:34.428Z,23.40
2019-04-04T21:45:03.466Z,21.30
2019-04-04T21:47:32.439Z,21.50
2019-04-04T21:50:01.284Z,20.90
2019-04-04T21:52:30.161Z,22.60
2019-04-04T21:54:59.089Z,22.43
2019-04-04T21:57:28.003Z,21.03
2019-04-04T21:59:56.809Z,22.27
2019-04-04T22:02:25.791Z,21.97
2019-04-04T22:04:54.650Z,22.53
2019-04-04T22:07:23.688Z,23.47
2019-04-04T22:09:52.801Z,21.27
2019-04-04T22:12:21.779Z,21.77
2019-04-04T22:14:50.822Z,21.73
2019-04-04T22:17:19.848Z,22.07
2019-04-04T22:19:48.799Z,23.97
2019-04-04T22:22:17.931Z,21.70
2019-04-04T22:24:46.867Z,22.33
2019-04-04T22:27:15.883Z,21.90
2019-04-04T22:29:44.777Z,22.20
2019-04-04T22:32:13.686Z,23.63
2019-04-04T22:34:42.717Z,22.30
2019-04-04T22:37:11.625Z,22.37
2019-04-04T22:39:40.522Z,23.20
2019-04-04T22:42:09.444Z,22.73
2019-04-04T22:44:38.490Z,22.20
2019-04-04T22:47:07.649Z,22.57
2019-04-04T22:49:36.804Z,22.97
2019-04-04T22:52:05.879Z,22.03
2019-04-04T22:54:34.856Z,23.50
2019-04-04T22:57:03.871Z,20.23
2019-04-04T22:59:32.713Z,22.10
2019-04-04T23:02:01.616Z,22.83
2019-04-04T23:04:30.547Z,22.50
2019-04-04T23:06:59.500Z,23.13
2019-04-04T23:09:28.470Z,24.80
2019-04-04T23:11:57.451Z,22.20
2019-04-04T23:14:26.768Z,22.97
2019-04-04T23:16:55.683Z,21.53
2019-04-04T23:19:24.567Z,23.77
2019-04-04T23:21:53.506Z,25.20
2019-04-04T23:24:22.438Z,21.57
2019-04-04T23:26:51.322Z,23.37
2019-04-04T23:29:20.206Z,24.83
2019-04-04T23:31:49.162Z,22.40
2019-04-04T23:34:18.027Z,23.07
2019-04-04T23:36:47.037Z,23.60
2019-04-04T23:39:16.168Z,22.23
2019-04-04T23:41:45.066Z,24.93
2019-04-04T23:44:13.976Z,23.67
2019-04-04T23:46:43.108Z,22.23
2019-04-04T23:49:11.966Z,25.57
2019-04-04T23:51:40.821Z,24.63
2019-04-04T23:54:09.636Z,25.10
2019-04-04T23:56:38.482Z,24.10
2019-04-04T23:59:07.412Z,23.60
